»·PEaware :: N32314 KONT-KVCV

N32314 :: KONT-KVCV

FLIGHT INFORMATION

Flight Status: Arrived
Operator: Privately registered:
United States
More flights under this callsign
Pilot: John O. (31453)
Aircraft: CESSNA 172 SKYHAWK
(C172)
More flights by this aircraft type
Origin: KONT Ontario Intl
United States
Destination: KVCV Socal Logistics
United States
More flights between these airports :: More routes between these airports
Route: +
File this flight plan on PilotEdge
Remarks:
Altitude:
(Current/Filed)
9,500ft
Speed:
(Current/Filed)
0kts
Departed: 30-Oct-20 02:44 PM
Arrived: 30-Oct-20 03:24 PM
Distance/Time
Traveled:
34nm/0:40
Distance/Time
To Go:
Arrived

Flight Plot

Page will automatically refresh every two minutes.

Flight plan parsing failed; only flown route is shown


Map Options




Map Legend


Flown Route
Filed Route
Departure Airport
Arrival Airport
Navaid (VOR, NDB)
Fix

Horizontal Profiles

Position Reports

Time Latitude Longitude Heading Altitude Ground
Speed
30-Oct-20 14:31 34.053198 -117.613255 43 942ft 0kts
30-Oct-20 14:32 34.053198 -117.613255 43 942ft 0kts
30-Oct-20 14:33 34.053198 -117.613255 43 942ft 0kts
30-Oct-20 14:34 34.053198 -117.613255 43 942ft 0kts
30-Oct-20 14:35 34.053198 -117.613255 43 942ft 0kts
30-Oct-20 14:36 34.053721 -117.612636 49 941ft 9kts
30-Oct-20 14:37 34.053867 -117.606319 89 936ft 24kts
30-Oct-20 14:38 34.053871 -117.599318 89 934ft 17kts
30-Oct-20 14:39 34.053875 -117.594249 89 934ft 17kts
30-Oct-20 14:40 34.053875 -117.587200 89 930ft 24kts
30-Oct-20 14:41 34.054091 -117.582772 23 930ft 0kts
30-Oct-20 14:42 34.054091 -117.582772 23 930ft 0kts
30-Oct-20 14:43 34.054980 -117.589303 269 942ft 75kts
30-Oct-20 14:44 34.055107 -117.618279 276 1589ft 90kts
30-Oct-20 14:45 34.067746 -117.610007 72 2128ft 98kts
30-Oct-20 14:46 34.075680 -117.576800 72 2533ft 105kts
30-Oct-20 14:47 34.083835 -117.542878 72 2932ft 105kts
30-Oct-20 14:48 34.092541 -117.507260 72 3063ft 116kts
30-Oct-20 14:49 34.102062 -117.469814 39 3062ft 118kts
30-Oct-20 14:50 34.130033 -117.479917 357 3583ft 100kts
30-Oct-20 14:51 34.155857 -117.477937 20 4279ft 87kts
30-Oct-20 14:52 34.177148 -117.467513 22 4944ft 80kts
30-Oct-20 14:53 34.200513 -117.456159 23 5396ft 98kts
30-Oct-20 14:54 34.226369 -117.443555 22 5836ft 98kts
30-Oct-20 14:55 34.251698 -117.431227 22 6329ft 96kts
30-Oct-20 14:56 34.276107 -117.419466 22 6828ft 92kts
30-Oct-20 14:57 34.299711 -117.408346 22 7336ft 90kts
30-Oct-20 14:58 34.323264 -117.397501 22 7844ft 89kts
30-Oct-20 14:59 34.345942 -117.387346 22 8329ft 84kts
30-Oct-20 15:00 34.367442 -117.378024 22 8827ft 78kts
30-Oct-20 15:01 34.386851 -117.369885 22 9309ft 66kts
30-Oct-20 15:02 34.402659 -117.363553 22 9523ft 58kts
30-Oct-20 15:03 34.419047 -117.357087 22 9629ft 73kts
30-Oct-20 15:04 34.444036 -117.346282 22 9596ft 111kts
30-Oct-20 15:05 34.473510 -117.332509 22 9581ft 113kts
30-Oct-20 15:06 34.502961 -117.318513 22 9595ft 113kts
30-Oct-20 15:07 34.532332 -117.304436 22 9600ft 113kts
30-Oct-20 15:08 34.561807 -117.290230 22 9600ft 113kts
30-Oct-20 15:09 34.591159 -117.276044 22 9602ft 113kts
30-Oct-20 15:10 34.620404 -117.261808 22 9603ft 113kts
30-Oct-20 15:11 34.649567 -117.247558 22 9609ft 113kts
30-Oct-20 15:12 34.678984 -117.233252 22 9602ft 113kts
30-Oct-20 15:13 34.708344 -117.218951 22 9605ft 113kts
30-Oct-20 15:14 34.738776 -117.206906 338 9067ft 119kts
30-Oct-20 15:15 34.750837 -117.239127 252 8476ft 124kts
30-Oct-20 15:16 34.749306 -117.281233 272 7730ft 127kts
30-Oct-20 15:17 34.750248 -117.324293 272 6923ft 126kts
30-Oct-20 15:18 34.726621 -117.349734 225 6118ft 126kts
30-Oct-20 15:19 34.706400 -117.381023 227 4709ft 111kts
30-Oct-20 15:20 34.677488 -117.385889 190 3804ft 95kts
30-Oct-20 15:21 34.652651 -117.387229 179 3470ft 85kts
30-Oct-20 15:22 34.630016 -117.386812 181 3063ft 77kts
30-Oct-20 15:23 34.613520 -117.386721 179 2835ft 29kts
30-Oct-20 15:24 34.610547 -117.385508 91 2838ft 0kts
30-Oct-20 15:25 34.610547 -117.385508 91 2838ft 0kts
30-Oct-20 15:26 34.610547 -117.385508 91 2838ft 0kts
30-Oct-20 15:27 34.610547 -117.385508 91 2838ft 0kts
30-Oct-20 15:28 34.610547 -117.385508 91 2838ft 0kts
30-Oct-20 15:29 34.610547 -117.385508 91 2838ft 0kts
30-Oct-20 15:30 34.610547 -117.385508 91 2838ft 0kts
30-Oct-20 15:31 34.606222 -117.384152 180 2844ft 29kts
30-Oct-20 15:32 34.596083 -117.384077 180 2862ft 41kts
30-Oct-20 15:33 34.589591 -117.377521 133 2868ft 26kts
30-Oct-20 15:34 34.590376 -117.373858 303 2864ft 4kts
30-Oct-20 15:35 34.590438 -117.374028 282 2864ft 0kts
30-Oct-20 15:36 34.590438 -117.374028 282 2864ft 0kts
30-Oct-20 15:38 34.590438 -117.374028 282 2864ft 0kts

Navigation Log

Ident Type
Flight plan parsing failed, navigation log unavailable